Imphal Airport
VEIM : now visible

Airfield :











YOU CAN JOIN US ON...

 
LOGIN :

Register | Disclaimer

   EN    FR    IT 

 









Legend :    VFR   Marginal VFR   IFR   Intensive IFR   Very Intensive IFR
Visi :
Ceiling :
>= 8 km
>= 3000ft
5 to 8 km
1000 to 3000 ft
1500m to 5 km
500 to 1000 ft
800 to 1500m
200 to 500 ft
< 800m
< 200 ft
Symbols :   Thunderstorms  Fog  Heavy snow  Heavy precipitations  Wind > 20 kt






- Airport Elevation : 2540 ft
- IATA code : IMF


VEIM - Imphal

CURRENT METAR :
  • 271500Z 09002KT 4000 -RA SCT008 BKN016 OVC090 24/24 Q1005 BECMG 3000 RA

EXPIRED METARs :
  • 271430Z 35004KT 4000 -RA SCT008 BKN016 OVC090 24/24 Q1005 NOSIG
  • 271400Z 00002KT 4000 -RA SCT008 BKN016 OVC090 24/24 Q1005 NOSIG
  • 271330Z 08004KT 5000 -RA SCT008 BKN018 OVC090 24/24 Q1005 NOSIG
  • 271300Z 14004KT 5000 -RA SCT008 BKN018 OVC090 25/25 Q1005 NOSIG
  • 271230Z 12004KT 5000 SCT008 BKN018 OVC090 26/25 Q1004 NOSIG
  • 271130Z 08004KT 6000 FEW008 SCT018 OVC090 26/25 Q1003 NOSIG
  • 271100Z 14005KT 6000 -RA FEW008 SCT018 OVC090 26/25 Q1003 BECMG 5000 -RA

TAF TAF VEIM
Valid from the 27 at 12:00 until the 27 at 21:00 UTC


271100Z 2712/2721 14008KT 3000 -RA BR FEW008 SCT016 BKN090
TEMPO 2716/2718 05010KT 1500 TSRA FEW008 SCT016 FEW025CB BKN080
VECF FIR / Asia



MET'MAP, your aeronautical weather chart ! - Copyright ORBIFLY December 2007 - Disclaimer

ORBIFLY MET'MAP TEAM :

Programming & Development : Alexandra Zaïnal
Original concept : Baudouin d'Aumeries
Technical & hardware support : Manuel Goepfert
Assistance : Marc-Olivier Méhu




SOURCES & CREDITS :

   NOAA       Earth
Advisory